Terminal Aerodrome Forecast
Issued by NWS Cleveland, OH

Home | Current Version | Previous Version | Graphics & Text | Print | Product List | Glossary On
Versions: 1 2 3 4 5 6 7 8 9 10 11 12 13 14 15 16 17 18 19 20
000
FTUS41 KCLE 301700
TAFTOL
TAF
KTOL 301731Z 3018/3118 22010G20KT P6SM SCT070 BKN120
     FM301900 20012G22KT P6SM VCSH SCT050 OVC100
      TEMPO 3021/3024 4SM -TSRA OVC025CB
     FM310200 21012KT 5SM -SHRA BKN030 OVC080
     FM310900 23007KT 4SM BR OVC015
     FM311400 23010KT P6SM BKN025=

USA.gov is the U.S. government's official web portal to all federal, state and local government web resources and services.